sensor_id;sensor_type;location;lat;lon;timestamp;pressure;altitude;pressure_sealevel;temperature;humidity
41862;BME280;27537;57.134;-2.136;2022-12-05T00:03:39;102591.66;;;7.08;100.00
41862;BME280;27537;57.134;-2.136;2022-12-05T00:06:06;102568.91;;;6.82;100.00
41862;BME280;27537;57.134;-2.136;2022-12-05T00:08:33;102575.13;;;7.02;100.00
41862;BME280;27537;57.134;-2.136;2022-12-05T00:10:59;102587.25;;;6.96;100.00
41862;BME280;27537;57.134;-2.136;2022-12-05T00:13:26;102583.66;;;6.80;100.00
41862;BME280;27537;57.134;-2.136;2022-12-05T00:15:53;102609.88;;;7.01;100.00
41862;BME280;27537;57.134;-2.136;2022-12-05T00:18:20;102575.81;;;6.77;100.00
41862;BME280;27537;57.134;-2.136;2022-12-05T00:20:48;102555.75;;;6.65;100.00
41862;BME280;27537;57.134;-2.136;2022-12-05T00:23:14;102578.47;;;6.84;100.00
41862;BME280;27537;57.134;-2.136;2022-12-05T00:25:41;102565.19;;;6.49;100.00
41862;BME280;27537;57.134;-2.136;2022-12-05T00:28:08;102584.47;;;6.76;100.00
41862;BME280;27537;57.134;-2.136;2022-12-05T00:30:39;102598.19;;;6.56;100.00
41862;BME280;27537;57.134;-2.136;2022-12-05T00:33:05;102608.00;;;6.87;100.00
41862;BME280;27537;57.134;-2.136;2022-12-05T00:35:33;102626.16;;;6.77;100.00
41862;BME280;27537;57.134;-2.136;2022-12-05T00:38:00;102625.31;;;6.81;100.00
41862;BME280;27537;57.134;-2.136;2022-12-05T00:40:27;102614.88;;;6.77;100.00
41862;BME280;27537;57.134;-2.136;2022-12-05T00:42:53;102598.34;;;6.72;100.00
41862;BME280;27537;57.134;-2.136;2022-12-05T00:45:20;102584.38;;;6.63;100.00
41862;BME280;27537;57.134;-2.136;2022-12-05T00:47:47;102601.66;;;6.54;100.00
41862;BME280;27537;57.134;-2.136;2022-12-05T00:50:14;102552.75;;;6.19;100.00
41862;BME280;27537;57.134;-2.136;2022-12-05T00:52:40;102602.66;;;6.68;100.00
41862;BME280;27537;57.134;-2.136;2022-12-05T00:55:07;102633.22;;;6.92;100.00
41862;BME280;27537;57.134;-2.136;2022-12-05T00:57:34;102575.69;;;6.61;100.00
41862;BME280;27537;57.134;-2.136;2022-12-05T01:00:02;102621.91;;;6.90;100.00
41862;BME280;27537;57.134;-2.136;2022-12-05T01:02:29;102618.19;;;6.57;100.00
41862;BME280;27537;57.134;-2.136;2022-12-05T01:04:56;102619.97;;;6.64;100.00
41862;BME280;27537;57.134;-2.136;2022-12-05T01:07:22;102601.78;;;6.66;100.00
41862;BME280;27537;57.134;-2.136;2022-12-05T01:09:49;102621.13;;;7.00;100.00
41862;BME280;27537;57.134;-2.136;2022-12-05T01:12:16;102603.75;;;6.96;100.00
41862;BME280;27537;57.134;-2.136;2022-12-05T01:14:43;102629.81;;;6.99;100.00
41862;BME280;27537;57.134;-2.136;2022-12-05T01:17:10;102625.28;;;6.77;100.00
41862;BME280;27537;57.134;-2.136;2022-12-05T01:19:37;102639.88;;;6.59;100.00
41862;BME280;27537;57.134;-2.136;2022-12-05T01:22:04;102631.22;;;6.59;100.00
41862;BME280;27537;57.134;-2.136;2022-12-05T01:24:30;102609.47;;;6.57;100.00
41862;BME280;27537;57.134;-2.136;2022-12-05T01:26:57;102618.28;;;6.68;100.00
41862;BME280;27537;57.134;-2.136;2022-12-05T01:29:24;102631.31;;;6.73;100.00
41862;BME280;27537;57.134;-2.136;2022-12-05T01:31:51;102641.03;;;6.92;100.00
41862;BME280;27537;57.134;-2.136;2022-12-05T01:34:19;102634.06;;;6.88;100.00
41862;BME280;27537;57.134;-2.136;2022-12-05T01:36:46;102615.78;;;6.85;100.00
41862;BME280;27537;57.134;-2.136;2022-12-05T01:39:14;102643.66;;;6.95;100.00
41862;BME280;27537;57.134;-2.136;2022-12-05T01:41:45;102646.25;;;6.95;100.00
41862;BME280;27537;57.134;-2.136;2022-12-05T01:46:44;102647.25;;;7.07;100.00
41862;BME280;27537;57.134;-2.136;2022-12-05T01:49:24;102628.94;;;7.00;100.00
41862;BME280;27537;57.134;-2.136;2022-12-05T01:52:00;102619.47;;;7.12;100.00
41862;BME280;27537;57.134;-2.136;2022-12-05T01:54:29;102634.19;;;7.08;100.00
41862;BME280;27537;57.134;-2.136;2022-12-05T01:57:00;102643.78;;;7.11;100.00
41862;BME280;27537;57.134;-2.136;2022-12-05T01:59:31;102607.09;;;6.81;100.00
41862;BME280;27537;57.134;-2.136;2022-12-05T02:01:59;102591.44;;;6.75;100.00
41862;BME280;27537;57.134;-2.136;2022-12-05T02:04:27;102639.41;;;7.07;100.00
41862;BME280;27537;57.134;-2.136;2022-12-05T02:06:54;102633.41;;;7.14;100.00
41862;BME280;27537;57.134;-2.136;2022-12-05T02:09:22;102633.50;;;7.34;100.00
41862;BME280;27537;57.134;-2.136;2022-12-05T02:11:57;102621.25;;;7.20;100.00
41862;BME280;27537;57.134;-2.136;2022-12-05T02:14:45;102637.94;;;7.47;100.00
41862;BME280;27537;57.134;-2.136;2022-12-05T02:17:45;102637.06;;;7.42;100.00
41862;BME280;27537;57.134;-2.136;2022-12-05T02:29:04;102637.78;;;7.24;100.00
41862;BME280;27537;57.134;-2.136;2022-12-05T02:31:57;102629.94;;;7.18;100.00
41862;BME280;27537;57.134;-2.136;2022-12-05T02:34:34;102621.34;;;7.30;100.00
41862;BME280;27537;57.134;-2.136;2022-12-05T02:37:22;102622.09;;;7.15;100.00
41862;BME280;27537;57.134;-2.136;2022-12-05T02:40:02;102631.75;;;7.30;100.00
41862;BME280;27537;57.134;-2.136;2022-12-05T02:42:37;102628.25;;;7.28;100.00
41862;BME280;27537;57.134;-2.136;2022-12-05T02:45:11;102574.22;;;6.99;100.00
41862;BME280;27537;57.134;-2.136;2022-12-05T02:47:46;102627.47;;;7.41;100.00
41862;BME280;27537;57.134;-2.136;2022-12-05T02:50:17;102601.09;;;6.93;100.00
41862;BME280;27537;57.134;-2.136;2022-12-05T02:52:47;102617.69;;;7.06;100.00
41862;BME280;27537;57.134;-2.136;2022-12-05T02:55:16;102623.00;;;7.20;100.00
41862;BME280;27537;57.134;-2.136;2022-12-05T02:57:47;102605.56;;;7.10;100.00
41862;BME280;27537;57.134;-2.136;2022-12-05T03:00:17;102614.25;;;7.10;100.00
41862;BME280;27537;57.134;-2.136;2022-12-05T03:02:44;102629.00;;;7.10;100.00
41862;BME280;27537;57.134;-2.136;2022-12-05T03:07:52;102629.06;;;7.17;100.00
41862;BME280;27537;57.134;-2.136;2022-12-05T03:10:24;102633.50;;;7.31;100.00
41862;BME280;27537;57.134;-2.136;2022-12-05T03:12:56;102639.56;;;7.33;100.00
41862;BME280;27537;57.134;-2.136;2022-12-05T03:15:31;102592.47;;;7.00;100.00
41862;BME280;27537;57.134;-2.136;2022-12-05T03:18:08;102630.00;;;7.29;100.00
41862;BME280;27537;57.134;-2.136;2022-12-05T03:20:46;102632.69;;;7.41;100.00
41862;BME280;27537;57.134;-2.136;2022-12-05T03:23:27;102607.41;;;7.25;100.00
41862;BME280;27537;57.134;-2.136;2022-12-05T03:26:04;102646.47;;;7.23;100.00
41862;BME280;27537;57.134;-2.136;2022-12-05T03:31:11;102619.50;;;7.15;100.00
41862;BME280;27537;57.134;-2.136;2022-12-05T03:33:41;102610.81;;;7.16;100.00
41862;BME280;27537;57.134;-2.136;2022-12-05T03:36:23;102660.41;;;7.28;100.00
41862;BME280;27537;57.134;-2.136;2022-12-05T03:39:05;102654.38;;;7.35;100.00
41862;BME280;27537;57.134;-2.136;2022-12-05T03:41:46;102657.75;;;7.23;100.00
41862;BME280;27537;57.134;-2.136;2022-12-05T03:48:03;102662.97;;;7.22;100.00
41862;BME280;27537;57.134;-2.136;2022-12-05T03:50:26;102648.97;;;7.08;100.00
41862;BME280;27537;57.134;-2.136;2022-12-05T03:53:06;102650.66;;;7.04;100.00
41862;BME280;27537;57.134;-2.136;2022-12-05T03:55:57;102658.53;;;7.09;100.00
41862;BME280;27537;57.134;-2.136;2022-12-05T03:58:34;102621.81;;;6.78;100.00
41862;BME280;27537;57.134;-2.136;2022-12-05T04:01:05;102630.59;;;6.88;100.00
41862;BME280;27537;57.134;-2.136;2022-12-05T04:03:39;102644.56;;;6.99;100.00
41862;BME280;27537;57.134;-2.136;2022-12-05T04:06:14;102634.88;;;6.82;100.00
41862;BME280;27537;57.134;-2.136;2022-12-05T04:08:51;102641.13;;;7.04;100.00
41862;BME280;27537;57.134;-2.136;2022-12-05T04:11:22;102628.81;;;6.83;100.00
41862;BME280;27537;57.134;-2.136;2022-12-05T04:13:54;102661.88;;;6.95;100.00
41862;BME280;27537;57.134;-2.136;2022-12-05T04:16:37;102663.72;;;7.07;100.00
41862;BME280;27537;57.134;-2.136;2022-12-05T04:22:24;102664.56;;;7.04;100.00
41862;BME280;27537;57.134;-2.136;2022-12-05T04:24:53;102675.88;;;7.10;100.00
41862;BME280;27537;57.134;-2.136;2022-12-05T04:27:49;102672.34;;;7.00;100.00
41862;BME280;27537;57.134;-2.136;2022-12-05T04:30:23;102654.06;;;6.94;100.00
41862;BME280;27537;57.134;-2.136;2022-12-05T04:33:04;102671.63;;;7.18;100.00
41862;BME280;27537;57.134;-2.136;2022-12-05T04:35:39;102676.91;;;7.29;100.00
41862;BME280;27537;57.134;-2.136;2022-12-05T04:38:38;102652.44;;;7.08;100.00
41862;BME280;27537;57.134;-2.136;2022-12-05T04:41:12;102684.69;;;7.26;100.00
41862;BME280;27537;57.134;-2.136;2022-12-05T04:43:41;102684.69;;;7.22;100.00
41862;BME280;27537;57.134;-2.136;2022-12-05T04:46:10;102657.66;;;7.10;100.00
41862;BME280;27537;57.134;-2.136;2022-12-05T04:48:41;102685.53;;;7.20;100.00
41862;BME280;27537;57.134;-2.136;2022-12-05T04:51:15;102655.84;;;6.98;100.00
41862;BME280;27537;57.134;-2.136;2022-12-05T04:53:44;102686.31;;;7.10;100.00
41862;BME280;27537;57.134;-2.136;2022-12-05T04:56:15;102686.38;;;7.16;100.00
41862;BME280;27537;57.134;-2.136;2022-12-05T04:58:44;102675.03;;;7.11;100.00
41862;BME280;27537;57.134;-2.136;2022-12-05T05:01:18;102700.31;;;7.24;100.00
41862;BME280;27537;57.134;-2.136;2022-12-05T05:06:25;102678.41;;;6.99;100.00
41862;BME280;27537;57.134;-2.136;2022-12-05T05:08:55;102704.56;;;7.13;100.00
41862;BME280;27537;57.134;-2.136;2022-12-05T05:11:27;102682.91;;;7.20;100.00
41862;BME280;27537;57.134;-2.136;2022-12-05T05:13:55;102678.44;;;7.02;100.00
41862;BME280;27537;57.134;-2.136;2022-12-05T05:16:24;102686.06;;;6.79;100.00
41862;BME280;27537;57.134;-2.136;2022-12-05T05:18:52;102694.84;;;6.92;100.00
41862;BME280;27537;57.134;-2.136;2022-12-05T05:21:24;102689.53;;;6.81;100.00
41862;BME280;27537;57.134;-2.136;2022-12-05T05:23:51;102663.28;;;6.58;100.00
41862;BME280;27537;57.134;-2.136;2022-12-05T05:26:19;102705.13;;;6.78;100.00
41862;BME280;27537;57.134;-2.136;2022-12-05T05:28:47;102693.88;;;6.79;100.00
41862;BME280;27537;57.134;-2.136;2022-12-05T05:31:15;102652.69;;;6.41;100.00
41862;BME280;27537;57.134;-2.136;2022-12-05T05:33:41;102669.94;;;6.30;100.00
41862;BME280;27537;57.134;-2.136;2022-12-05T05:36:11;102703.13;;;6.51;100.00
41862;BME280;27537;57.134;-2.136;2022-12-05T05:38:47;102709.97;;;6.42;100.00
41862;BME280;27537;57.134;-2.136;2022-12-05T05:41:16;102704.78;;;6.44;100.00
41862;BME280;27537;57.134;-2.136;2022-12-05T05:43:44;102700.41;;;6.40;100.00
41862;BME280;27537;57.134;-2.136;2022-12-05T05:46:12;102694.16;;;6.24;100.00
41862;BME280;27537;57.134;-2.136;2022-12-05T05:48:39;102708.13;;;6.32;100.00
41862;BME280;27537;57.134;-2.136;2022-12-05T05:51:08;102675.66;;;5.99;100.00
41862;BME280;27537;57.134;-2.136;2022-12-05T05:53:35;102636.31;;;5.75;100.00
41862;BME280;27537;57.134;-2.136;2022-12-05T05:56:07;102710.50;;;6.14;100.00
41862;BME280;27537;57.134;-2.136;2022-12-05T05:58:34;102717.91;;;5.87;100.00
41862;BME280;27537;57.134;-2.136;2022-12-05T06:01:08;102720.81;;;6.09;100.00
41862;BME280;27537;57.134;-2.136;2022-12-05T06:03:36;102697.38;;;6.04;100.00
41862;BME280;27537;57.134;-2.136;2022-12-05T06:06:06;102719.38;;;6.30;100.00
41862;BME280;27537;57.134;-2.136;2022-12-05T06:08:35;102715.03;;;6.32;100.00
41862;BME280;27537;57.134;-2.136;2022-12-05T06:11:07;102731.56;;;6.32;100.00
41862;BME280;27537;57.134;-2.136;2022-12-05T06:13:34;102729.81;;;6.33;100.00
41862;BME280;27537;57.134;-2.136;2022-12-05T06:16:01;102721.00;;;6.20;100.00
41862;BME280;27537;57.134;-2.136;2022-12-05T06:18:30;102720.84;;;6.11;100.00
41862;BME280;27537;57.134;-2.136;2022-12-05T06:20:57;102704.19;;;5.96;100.00
41862;BME280;27537;57.134;-2.136;2022-12-05T06:23:24;102684.94;;;5.83;100.00
41862;BME280;27537;57.134;-2.136;2022-12-05T06:25:54;102719.06;;;6.05;100.00
41862;BME280;27537;57.134;-2.136;2022-12-05T06:28:22;102732.16;;;6.14;100.00
41862;BME280;27537;57.134;-2.136;2022-12-05T06:30:50;102705.16;;;6.03;100.00
41862;BME280;27537;57.134;-2.136;2022-12-05T06:33:17;102716.22;;;5.89;100.00
41862;BME280;27537;57.134;-2.136;2022-12-05T06:35:44;102693.59;;;5.81;100.00
41862;BME280;27537;57.134;-2.136;2022-12-05T06:38:12;102711.13;;;5.96;100.00
41862;BME280;27537;57.134;-2.136;2022-12-05T06:40:43;102718.81;;;5.89;100.00
41862;BME280;27537;57.134;-2.136;2022-12-05T06:43:10;102711.81;;;5.84;100.00
41862;BME280;27537;57.134;-2.136;2022-12-05T06:45:37;102710.06;;;5.83;100.00
41862;BME280;27537;57.134;-2.136;2022-12-05T06:48:05;102706.56;;;5.79;100.00
41862;BME280;27537;57.134;-2.136;2022-12-05T06:50:32;102682.06;;;5.62;100.00
41862;BME280;27537;57.134;-2.136;2022-12-05T06:52:59;102712.50;;;5.70;100.00
41862;BME280;27537;57.134;-2.136;2022-12-05T06:55:26;102691.28;;;5.43;100.00
41862;BME280;27537;57.134;-2.136;2022-12-05T06:57:52;102726.22;;;5.60;100.00
41862;BME280;27537;57.134;-2.136;2022-12-05T07:00:19;102724.28;;;5.48;100.00
41862;BME280;27537;57.134;-2.136;2022-12-05T07:03:04;102723.38;;;5.45;100.00
41862;BME280;27537;57.134;-2.136;2022-12-05T07:05:32;102734.56;;;5.41;100.00
41862;BME280;27537;57.134;-2.136;2022-12-05T07:07:58;102731.84;;;5.31;100.00
41862;BME280;27537;57.134;-2.136;2022-12-05T07:10:28;102733.22;;;5.11;100.00
41862;BME280;27537;57.134;-2.136;2022-12-05T07:13:02;102715.25;;;5.23;100.00
41862;BME280;27537;57.134;-2.136;2022-12-05T07:15:29;102730.28;;;5.44;100.00
41862;BME280;27537;57.134;-2.136;2022-12-05T07:17:56;102720.72;;;5.40;100.00
41862;BME280;27537;57.134;-2.136;2022-12-05T07:20:23;102711.31;;;5.50;100.00
41862;BME280;27537;57.134;-2.136;2022-12-05T07:22:49;102736.88;;;5.80;100.00
41862;BME280;27537;57.134;-2.136;2022-12-05T07:25:16;102729.81;;;5.68;100.00
41862;BME280;27537;57.134;-2.136;2022-12-05T07:27:45;102723.09;;;5.84;100.00
41862;BME280;27537;57.134;-2.136;2022-12-05T07:30:12;102711.66;;;5.73;100.00
41862;BME280;27537;57.134;-2.136;2022-12-05T07:32:39;102692.66;;;5.76;100.00
41862;BME280;27537;57.134;-2.136;2022-12-05T07:35:06;102690.06;;;5.76;100.00
41862;BME280;27537;57.134;-2.136;2022-12-05T07:37:33;102706.69;;;5.88;100.00
41862;BME280;27537;57.134;-2.136;2022-12-05T07:40:00;102689.31;;;5.87;100.00
41862;BME280;27537;57.134;-2.136;2022-12-05T07:42:27;102722.19;;;5.81;100.00
41862;BME280;27537;57.134;-2.136;2022-12-05T07:44:54;102705.63;;;5.74;100.00
41862;BME280;27537;57.134;-2.136;2022-12-05T07:47:20;102699.03;;;5.40;100.00
41862;BME280;27537;57.134;-2.136;2022-12-05T07:49:47;102745.59;;;5.26;100.00
41862;BME280;27537;57.134;-2.136;2022-12-05T07:52:14;102743.25;;;5.43;100.00
41862;BME280;27537;57.134;-2.136;2022-12-05T07:54:41;102755.59;;;5.58;100.00
41862;BME280;27537;57.134;-2.136;2022-12-05T07:57:08;102696.03;;;5.12;100.00
41862;BME280;27537;57.134;-2.136;2022-12-05T07:59:35;102695.00;;;5.04;100.00
41862;BME280;27537;57.134;-2.136;2022-12-05T08:02:02;102745.78;;;5.37;100.00
41862;BME280;27537;57.134;-2.136;2022-12-05T08:04:29;102750.97;;;5.38;100.00
41862;BME280;27537;57.134;-2.136;2022-12-05T08:06:56;102711.75;;;5.21;100.00
41862;BME280;27537;57.134;-2.136;2022-12-05T08:09:24;102702.34;;;5.28;100.00
41862;BME280;27537;57.134;-2.136;2022-12-05T08:11:51;102688.25;;;5.13;100.00
41862;BME280;27537;57.134;-2.136;2022-12-05T08:14:18;102764.31;;;5.60;100.00
41862;BME280;27537;57.134;-2.136;2022-12-05T08:16:45;102726.66;;;5.35;100.00
41862;BME280;27537;57.134;-2.136;2022-12-05T08:19:12;102721.16;;;5.14;100.00
41862;BME280;27537;57.134;-2.136;2022-12-05T08:21:39;102703.97;;;5.23;100.00
41862;BME280;27537;57.134;-2.136;2022-12-05T08:24:06;102705.00;;;5.32;100.00
41862;BME280;27537;57.134;-2.136;2022-12-05T08:26:35;102740.72;;;5.46;100.00
41862;BME280;27537;57.134;-2.136;2022-12-05T08:29:05;102766.00;;;5.56;100.00
41862;BME280;27537;57.134;-2.136;2022-12-05T08:31:34;102720.72;;;5.42;100.00
41862;BME280;27537;57.134;-2.136;2022-12-05T08:34:02;102747.66;;;5.45;100.00
41862;BME280;27537;57.134;-2.136;2022-12-05T08:36:29;102758.97;;;5.49;100.00
41862;BME280;27537;57.134;-2.136;2022-12-05T08:38:58;102749.25;;;5.39;100.00
41862;BME280;27537;57.134;-2.136;2022-12-05T08:41:27;102775.63;;;5.62;100.00
41862;BME280;27537;57.134;-2.136;2022-12-05T08:43:57;102727.81;;;5.52;100.00
41862;BME280;27537;57.134;-2.136;2022-12-05T08:46:26;102779.53;;;5.93;100.00
41862;BME280;27537;57.134;-2.136;2022-12-05T08:48:53;102753.09;;;5.62;100.00
41862;BME280;27537;57.134;-2.136;2022-12-05T08:51:20;102769.06;;;5.87;100.00
41862;BME280;27537;57.134;-2.136;2022-12-05T08:53:46;102750.78;;;5.82;100.00
41862;BME280;27537;57.134;-2.136;2022-12-05T08:56:14;102767.25;;;5.81;100.00
41862;BME280;27537;57.134;-2.136;2022-12-05T08:58:41;102746.50;;;5.84;100.00
41862;BME280;27537;57.134;-2.136;2022-12-05T09:01:14;102749.84;;;5.76;100.00
41862;BME280;27537;57.134;-2.136;2022-12-05T09:03:43;102777.00;;;5.96;100.00
41862;BME280;27537;57.134;-2.136;2022-12-05T09:08:41;102785.06;;;6.13;100.00
41862;BME280;27537;57.134;-2.136;2022-12-05T09:11:14;102775.41;;;6.04;100.00
41862;BME280;27537;57.134;-2.136;2022-12-05T09:13:44;102785.97;;;6.17;100.00
41862;BME280;27537;57.134;-2.136;2022-12-05T09:16:21;102744.09;;;5.97;100.00
41862;BME280;27537;57.134;-2.136;2022-12-05T09:18:50;102802.59;;;6.28;100.00
41862;BME280;27537;57.134;-2.136;2022-12-05T09:21:20;102779.13;;;6.22;100.00
41862;BME280;27537;57.134;-2.136;2022-12-05T09:23:47;102729.22;;;5.88;100.00
41862;BME280;27537;57.134;-2.136;2022-12-05T09:26:16;102801.81;;;6.32;100.00
41862;BME280;27537;57.134;-2.136;2022-12-05T09:28:46;102802.66;;;6.33;100.00
41862;BME280;27537;57.134;-2.136;2022-12-05T09:31:16;102736.94;;;5.83;100.00
41862;BME280;27537;57.134;-2.136;2022-12-05T09:33:46;102805.13;;;6.22;100.00
41862;BME280;27537;57.134;-2.136;2022-12-05T09:36:21;102806.81;;;6.18;100.00
41862;BME280;27537;57.134;-2.136;2022-12-05T09:38:50;102772.63;;;5.94;100.00
41862;BME280;27537;57.134;-2.136;2022-12-05T09:47:35;102817.97;;;6.10;100.00
41862;BME280;27537;57.134;-2.136;2022-12-05T09:50:19;102813.69;;;6.15;100.00
41862;BME280;27537;57.134;-2.136;2022-12-05T09:58:21;102771.47;;;5.75;100.00
41862;BME280;27537;57.134;-2.136;2022-12-05T10:00:57;102791.78;;;5.97;100.00
41862;BME280;27537;57.134;-2.136;2022-12-05T10:03:49;102818.75;;;6.04;100.00
41862;BME280;27537;57.134;-2.136;2022-12-05T10:06:33;102808.09;;;5.90;100.00
41862;BME280;27537;57.134;-2.136;2022-12-05T10:17:25;102758.19;;;5.58;100.00
41862;BME280;27537;57.134;-2.136;2022-12-05T10:19:57;102788.13;;;5.87;100.00
41862;BME280;27537;57.134;-2.136;2022-12-05T10:22:33;102753.38;;;5.82;100.00
41862;BME280;27537;57.134;-2.136;2022-12-05T10:25:04;102789.03;;;5.91;100.00
41862;BME280;27537;57.134;-2.136;2022-12-05T10:27:34;102805.09;;;6.20;100.00
41862;BME280;27537;57.134;-2.136;2022-12-05T10:30:16;102811.78;;;6.03;100.00
41862;BME280;27537;57.134;-2.136;2022-12-05T10:35:30;102806.69;;;6.11;100.00
41862;BME280;27537;57.134;-2.136;2022-12-05T10:38:02;102804.13;;;6.14;100.00
41862;BME280;27537;57.134;-2.136;2022-12-05T10:40:36;102751.75;;;5.89;100.00
41862;BME280;27537;57.134;-2.136;2022-12-05T10:43:04;102754.56;;;6.03;100.00
41862;BME280;27537;57.134;-2.136;2022-12-05T10:45:32;102739.94;;;6.10;100.00
41862;BME280;27537;57.134;-2.136;2022-12-05T10:48:01;102766.16;;;6.26;100.00
41862;BME280;27537;57.134;-2.136;2022-12-05T10:52:58;102789.72;;;6.39;100.00
41862;BME280;27537;57.134;-2.136;2022-12-05T10:55:33;102749.59;;;6.18;100.00
41862;BME280;27537;57.134;-2.136;2022-12-05T10:58:20;102771.63;;;6.46;100.00
41862;BME280;27537;57.134;-2.136;2022-12-05T11:01:15;102771.69;;;6.53;100.00
41862;BME280;27537;57.134;-2.136;2022-12-05T11:03:43;102745.47;;;6.39;100.00
41862;BME280;27537;57.134;-2.136;2022-12-05T11:08:51;102794.13;;;6.44;100.00
41862;BME280;27537;57.134;-2.136;2022-12-05T11:11:32;102745.22;;;6.17;100.00
41862;BME280;27537;57.134;-2.136;2022-12-05T11:14:21;102755.97;;;6.43;100.00
41862;BME280;27537;57.134;-2.136;2022-12-05T11:16:55;102797.06;;;6.72;100.00
41862;BME280;27537;57.134;-2.136;2022-12-05T11:19:31;102790.19;;;6.77;100.00
41862;BME280;27537;57.134;-2.136;2022-12-05T11:21:59;102765.84;;;6.74;100.00
41862;BME280;27537;57.134;-2.136;2022-12-05T11:24:35;102750.91;;;6.56;100.00
41862;BME280;27537;57.134;-2.136;2022-12-05T11:29:43;102786.56;;;6.63;100.00
41862;BME280;27537;57.134;-2.136;2022-12-05T11:32:23;102793.38;;;6.55;100.00
41862;BME280;27537;57.134;-2.136;2022-12-05T11:34:57;102747.97;;;6.30;100.00
41862;BME280;27537;57.134;-2.136;2022-12-05T11:41:00;102736.56;;;6.17;100.00
41862;BME280;27537;57.134;-2.136;2022-12-05T11:48:38;102792.41;;;6.45;100.00
41862;BME280;27537;57.134;-2.136;2022-12-05T11:57:40;102772.47;;;6.45;100.00
41862;BME280;27537;57.134;-2.136;2022-12-05T12:00:23;102748.06;;;6.37;100.00
41862;BME280;27537;57.134;-2.136;2022-12-05T12:09:01;102764.88;;;6.64;100.00
41862;BME280;27537;57.134;-2.136;2022-12-05T12:26:13;102753.00;;;6.91;100.00
41862;BME280;27537;57.134;-2.136;2022-12-05T12:43:53;102722.56;;;6.87;100.00
41862;BME280;27537;57.134;-2.136;2022-12-05T12:52:04;102734.66;;;6.78;100.00
41862;BME280;27537;57.134;-2.136;2022-12-05T12:55:04;102712.72;;;6.56;100.00
41862;BME280;27537;57.134;-2.136;2022-12-05T13:05:47;102748.25;;;6.53;100.00
41862;BME280;27537;57.134;-2.136;2022-12-05T13:08:46;102742.84;;;6.34;100.00
41862;BME280;27537;57.134;-2.136;2022-12-05T13:11:16;102739.50;;;6.47;100.00
41862;BME280;27537;57.134;-2.136;2022-12-05T13:13:49;102747.47;;;6.61;100.00
41862;BME280;27537;57.134;-2.136;2022-12-05T13:16:29;102728.22;;;6.45;100.00
41862;BME280;27537;57.134;-2.136;2022-12-05T13:18:58;102736.16;;;6.56;100.00
41862;BME280;27537;57.134;-2.136;2022-12-05T13:21:26;102737.94;;;6.62;100.00
41862;BME280;27537;57.134;-2.136;2022-12-05T13:23:56;102747.41;;;6.54;100.00
41862;BME280;27537;57.134;-2.136;2022-12-05T13:26:30;102752.72;;;6.64;100.00
41862;BME280;27537;57.134;-2.136;2022-12-05T13:29:00;102736.25;;;6.65;100.00
41862;BME280;27537;57.134;-2.136;2022-12-05T13:31:40;102720.72;;;6.73;100.00
41862;BME280;27537;57.134;-2.136;2022-12-05T13:34:44;102736.31;;;6.70;100.00
41862;BME280;27537;57.134;-2.136;2022-12-05T13:40:36;102731.31;;;6.93;100.00
41862;BME280;27537;57.134;-2.136;2022-12-05T13:43:27;102726.00;;;6.82;100.00
41862;BME280;27537;57.134;-2.136;2022-12-05T13:46:05;102704.28;;;6.79;100.00
41862;BME280;27537;57.134;-2.136;2022-12-05T13:48:39;102722.69;;;7.00;100.00
41862;BME280;27537;57.134;-2.136;2022-12-05T13:51:20;102698.41;;;7.00;100.00
41862;BME280;27537;57.134;-2.136;2022-12-05T13:53:57;102699.28;;;7.02;100.00
41862;BME280;27537;57.134;-2.136;2022-12-05T13:56:46;102689.66;;;6.95;100.00
41862;BME280;27537;57.134;-2.136;2022-12-05T14:07:51;102707.13;;;7.05;100.00
41862;BME280;27537;57.134;-2.136;2022-12-05T14:12:59;102699.13;;;6.82;100.00
41862;BME280;27537;57.134;-2.136;2022-12-05T14:18:04;102708.72;;;6.88;100.00
41862;BME280;27537;57.134;-2.136;2022-12-05T14:20:56;102705.13;;;6.75;100.00
41862;BME280;27537;57.134;-2.136;2022-12-05T14:27:48;102710.09;;;6.52;100.00
41862;BME280;27537;57.134;-2.136;2022-12-05T14:30:04;102684.75;;;6.37;100.00
41862;BME280;27537;57.134;-2.136;2022-12-05T14:32:38;102687.41;;;6.41;100.00
41862;BME280;27537;57.134;-2.136;2022-12-05T14:37:52;102688.59;;;6.71;100.00
41862;BME280;27537;57.134;-2.136;2022-12-05T14:40:38;102692.22;;;6.90;100.00
41862;BME280;27537;57.134;-2.136;2022-12-05T14:43:16;102680.66;;;6.59;100.00
41862;BME280;27537;57.134;-2.136;2022-12-05T14:53:22;102667.97;;;6.97;100.00
41862;BME280;27537;57.134;-2.136;2022-12-05T14:58:31;102634.56;;;6.49;100.00
41862;BME280;27537;57.134;-2.136;2022-12-05T15:01:04;102667.84;;;6.79;100.00
41862;BME280;27537;57.134;-2.136;2022-12-05T15:06:54;102669.41;;;6.63;100.00
41862;BME280;27537;57.134;-2.136;2022-12-05T15:12:19;102638.91;;;6.48;100.00
41862;BME280;27537;57.134;-2.136;2022-12-05T15:15:00;102638.03;;;6.47;100.00
41862;BME280;27537;57.134;-2.136;2022-12-05T15:17:50;102661.63;;;6.64;100.00
41862;BME280;27537;57.134;-2.136;2022-12-05T15:20:42;102644.06;;;6.43;100.00
41862;BME280;27537;57.134;-2.136;2022-12-05T15:31:50;102633.59;;;6.36;100.00
41862;BME280;27537;57.134;-2.136;2022-12-05T15:39:59;102673.50;;;6.41;100.00
41862;BME280;27537;57.134;-2.136;2022-12-05T15:42:34;102663.09;;;6.38;100.00
41862;BME280;27537;57.134;-2.136;2022-12-05T15:47:38;102641.22;;;6.20;100.00
41862;BME280;27537;57.134;-2.136;2022-12-05T15:50:11;102649.91;;;6.22;100.00
41862;BME280;27537;57.134;-2.136;2022-12-05T15:52:44;102657.81;;;6.33;100.00
41862;BME280;27537;57.134;-2.136;2022-12-05T15:55:17;102616.44;;;5.80;100.00
41862;BME280;27537;57.134;-2.136;2022-12-05T15:57:55;102624.59;;;6.09;100.00
41862;BME280;27537;57.134;-2.136;2022-12-05T16:00:27;102642.94;;;6.21;100.00
41862;BME280;27537;57.134;-2.136;2022-12-05T16:03:04;102664.09;;;6.52;100.00
41862;BME280;27537;57.134;-2.136;2022-12-05T16:05:38;102593.50;;;6.18;100.00
41862;BME280;27537;57.134;-2.136;2022-12-05T16:08:07;102610.66;;;6.01;100.00